sensor_id;sensor_type;location;lat;lon;timestamp;pressure;altitude;pressure_sealevel;temperature;humidity
12360;BME280;6244;51.460;7.090;2023-07-24T00:01:47;99645.78;;;16.77;100.00
12360;BME280;6244;51.460;7.090;2023-07-24T00:06:43;99620.66;;;16.81;100.00
12360;BME280;6244;51.460;7.090;2023-07-24T00:11:40;99624.44;;;16.79;100.00
12360;BME280;6244;51.460;7.090;2023-07-24T00:16:36;99619.13;;;16.79;100.00
12360;BME280;6244;51.460;7.090;2023-07-24T00:21:34;99615.13;;;16.75;100.00
12360;BME280;6244;51.460;7.090;2023-07-24T00:26:31;99600.44;;;16.80;100.00
12360;BME280;6244;51.460;7.090;2023-07-24T00:31:27;99592.47;;;16.90;100.00
12360;BME280;6244;51.460;7.090;2023-07-24T00:36:24;99592.31;;;16.91;100.00
12360;BME280;6244;51.460;7.090;2023-07-24T00:41:22;99587.56;;;16.95;100.00
12360;BME280;6244;51.460;7.090;2023-07-24T00:46:18;99590.50;;;16.92;100.00
12360;BME280;6244;51.460;7.090;2023-07-24T00:51:15;99589.81;;;16.90;100.00
12360;BME280;6244;51.460;7.090;2023-07-24T00:56:12;99591.19;;;16.94;100.00
12360;BME280;6244;51.460;7.090;2023-07-24T01:01:10;99582.41;;;16.93;100.00
12360;BME280;6244;51.460;7.090;2023-07-24T01:06:07;99576.88;;;16.87;100.00
12360;BME280;6244;51.460;7.090;2023-07-24T01:11:08;99569.59;;;16.89;100.00
12360;BME280;6244;51.460;7.090;2023-07-24T01:16:09;99565.69;;;16.93;100.00
12360;BME280;6244;51.460;7.090;2023-07-24T01:21:09;99556.75;;;16.94;100.00
12360;BME280;6244;51.460;7.090;2023-07-24T01:26:09;99550.59;;;16.93;100.00
12360;BME280;6244;51.460;7.090;2023-07-24T01:31:06;99541.16;;;16.91;100.00
12360;BME280;6244;51.460;7.090;2023-07-24T01:36:03;99536.41;;;16.85;100.00
12360;BME280;6244;51.460;7.090;2023-07-24T01:41:00;99523.47;;;16.82;100.00
12360;BME280;6244;51.460;7.090;2023-07-24T01:45:58;99513.69;;;16.82;100.00
12360;BME280;6244;51.460;7.090;2023-07-24T01:50:55;99511.88;;;16.83;100.00
12360;BME280;6244;51.460;7.090;2023-07-24T01:55:51;99503.41;;;16.79;99.96
12360;BME280;6244;51.460;7.090;2023-07-24T02:00:48;99497.41;;;16.77;100.00
12360;BME280;6244;51.460;7.090;2023-07-24T02:05:50;99496.72;;;16.75;100.00
12360;BME280;6244;51.460;7.090;2023-07-24T02:10:48;99493.34;;;16.83;100.00
12360;BME280;6244;51.460;7.090;2023-07-24T02:15:45;99497.56;;;16.76;100.00
12360;BME280;6244;51.460;7.090;2023-07-24T02:20:41;99486.00;;;16.67;100.00
12360;BME280;6244;51.460;7.090;2023-07-24T02:25:39;99479.13;;;16.74;100.00
12360;BME280;6244;51.460;7.090;2023-07-24T02:30:38;99473.97;;;16.82;100.00
12360;BME280;6244;51.460;7.090;2023-07-24T02:35:38;99473.22;;;16.90;99.86
12360;BME280;6244;51.460;7.090;2023-07-24T02:40:36;99471.41;;;16.90;99.81
12360;BME280;6244;51.460;7.090;2023-07-24T02:45:35;99464.25;;;17.00;98.92
12360;BME280;6244;51.460;7.090;2023-07-24T02:50:33;99475.13;;;16.97;99.05
12360;BME280;6244;51.460;7.090;2023-07-24T02:55:29;99480.44;;;16.97;97.70
12360;BME280;6244;51.460;7.090;2023-07-24T03:00:26;99462.84;;;16.96;98.22
12360;BME280;6244;51.460;7.090;2023-07-24T03:05:24;99448.88;;;17.04;98.32
12360;BME280;6244;51.460;7.090;2023-07-24T03:10:22;99449.91;;;16.93;98.51
12360;BME280;6244;51.460;7.090;2023-07-24T03:15:19;99440.94;;;16.77;99.15
12360;BME280;6244;51.460;7.090;2023-07-24T03:20:18;99460.22;;;16.69;99.77
12360;BME280;6244;51.460;7.090;2023-07-24T03:25:16;99452.97;;;16.61;100.00
12360;BME280;6244;51.460;7.090;2023-07-24T03:30:13;99441.53;;;16.61;100.00
12360;BME280;6244;51.460;7.090;2023-07-24T03:35:09;99428.88;;;16.55;100.00
12360;BME280;6244;51.460;7.090;2023-07-24T03:40:07;99423.75;;;16.53;100.00
12360;BME280;6244;51.460;7.090;2023-07-24T03:45:06;99423.44;;;16.56;100.00
12360;BME280;6244;51.460;7.090;2023-07-24T03:50:04;99414.38;;;16.59;100.00
12360;BME280;6244;51.460;7.090;2023-07-24T03:55:01;99406.88;;;16.54;100.00
12360;BME280;6244;51.460;7.090;2023-07-24T03:59:57;99406.34;;;16.51;100.00
12360;BME280;6244;51.460;7.090;2023-07-24T04:04:55;99408.00;;;16.52;100.00
12360;BME280;6244;51.460;7.090;2023-07-24T04:09:52;99399.38;;;16.50;100.00
12360;BME280;6244;51.460;7.090;2023-07-24T04:14:49;99391.34;;;16.59;100.00
12360;BME280;6244;51.460;7.090;2023-07-24T04:19:45;99399.03;;;16.62;100.00
12360;BME280;6244;51.460;7.090;2023-07-24T04:24:43;99406.69;;;16.65;100.00
12360;BME280;6244;51.460;7.090;2023-07-24T04:29:40;99408.91;;;16.60;100.00
12360;BME280;6244;51.460;7.090;2023-07-24T04:34:36;99408.91;;;16.60;100.00
12360;BME280;6244;51.460;7.090;2023-07-24T04:39:33;99412.69;;;16.58;100.00
12360;BME280;6244;51.460;7.090;2023-07-24T04:44:31;99411.03;;;16.57;100.00
12360;BME280;6244;51.460;7.090;2023-07-24T04:49:28;99392.78;;;16.54;100.00
12360;BME280;6244;51.460;7.090;2023-07-24T04:54:25;99387.19;;;16.57;100.00
12360;BME280;6244;51.460;7.090;2023-07-24T04:59:21;99400.53;;;16.65;100.00
12360;BME280;6244;51.460;7.090;2023-07-24T05:04:20;99394.16;;;16.58;100.00
12360;BME280;6244;51.460;7.090;2023-07-24T05:09:17;99395.41;;;16.63;100.00
12360;BME280;6244;51.460;7.090;2023-07-24T05:14:13;99404.03;;;16.65;100.00
12360;BME280;6244;51.460;7.090;2023-07-24T05:19:10;99412.69;;;16.67;100.00
12360;BME280;6244;51.460;7.090;2023-07-24T05:24:07;99424.81;;;16.60;100.00
12360;BME280;6244;51.460;7.090;2023-07-24T05:29:04;99430.94;;;16.70;100.00
12360;BME280;6244;51.460;7.090;2023-07-24T05:34:00;99443.34;;;16.70;100.00
12360;BME280;6244;51.460;7.090;2023-07-24T05:38:58;99433.16;;;16.65;100.00
12360;BME280;6244;51.460;7.090;2023-07-24T05:43:56;99440.44;;;16.63;100.00
12360;BME280;6244;51.460;7.090;2023-07-24T05:48:53;99451.41;;;16.78;100.00
12360;BME280;6244;51.460;7.090;2023-07-24T05:53:49;99440.44;;;16.91;100.00
12360;BME280;6244;51.460;7.090;2023-07-24T05:58:46;99438.84;;;16.98;100.00
12360;BME280;6244;51.460;7.090;2023-07-24T06:03:44;99444.63;;;16.93;100.00
12360;BME280;6244;51.460;7.090;2023-07-24T06:08:40;99440.44;;;16.91;100.00
12360;BME280;6244;51.460;7.090;2023-07-24T06:13:37;99442.91;;;17.02;100.00
12360;BME280;6244;51.460;7.090;2023-07-24T06:18:33;99452.53;;;17.21;100.00
12360;BME280;6244;51.460;7.090;2023-07-24T06:23:31;99458.38;;;17.24;100.00
12360;BME280;6244;51.460;7.090;2023-07-24T06:28:28;99461.78;;;17.17;100.00
12360;BME280;6244;51.460;7.090;2023-07-24T06:33:24;99457.47;;;17.16;100.00
12360;BME280;6244;51.460;7.090;2023-07-24T06:38:21;99456.97;;;17.02;100.00
12360;BME280;6244;51.460;7.090;2023-07-24T06:43:19;99441.44;;;17.08;100.00
12360;BME280;6244;51.460;7.090;2023-07-24T06:48:20;99445.50;;;17.12;100.00
12360;BME280;6244;51.460;7.090;2023-07-24T06:53:19;99441.34;;;17.27;100.00
12360;BME280;6244;51.460;7.090;2023-07-24T06:58:16;99445.97;;;17.25;99.20
12360;BME280;6244;51.460;7.090;2023-07-24T07:03:14;99452.84;;;17.36;98.40
12360;BME280;6244;51.460;7.090;2023-07-24T07:08:10;99443.38;;;17.33;97.45
12360;BME280;6244;51.460;7.090;2023-07-24T07:13:07;99450.19;;;17.36;97.76
12360;BME280;6244;51.460;7.090;2023-07-24T07:18:03;99454.88;;;17.59;97.75
12360;BME280;6244;51.460;7.090;2023-07-24T07:23:01;99452.63;;;17.65;95.77
12360;BME280;6244;51.460;7.090;2023-07-24T07:27:58;99445.19;;;17.68;94.81
12360;BME280;6244;51.460;7.090;2023-07-24T07:32:54;99448.59;;;17.60;93.94
12360;BME280;6244;51.460;7.090;2023-07-24T07:37:51;99445.50;;;17.47;94.30
12360;BME280;6244;51.460;7.090;2023-07-24T07:42:49;99449.75;;;17.40;95.41
12360;BME280;6244;51.460;7.090;2023-07-24T07:47:45;99437.41;;;17.49;94.32
12360;BME280;6244;51.460;7.090;2023-07-24T07:52:42;99441.69;;;17.68;92.98
12360;BME280;6244;51.460;7.090;2023-07-24T07:57:39;99441.75;;;17.94;90.05
12360;BME280;6244;51.460;7.090;2023-07-24T08:02:37;99433.72;;;18.03;89.70
12360;BME280;6244;51.460;7.090;2023-07-24T08:07:35;99437.13;;;18.22;87.87
12360;BME280;6244;51.460;7.090;2023-07-24T08:12:31;99431.88;;;18.30;87.46
12360;BME280;6244;51.460;7.090;2023-07-24T08:17:28;99426.34;;;18.49;84.44
12360;BME280;6244;51.460;7.090;2023-07-24T08:22:26;99423.09;;;18.63;85.35
12360;BME280;6244;51.460;7.090;2023-07-24T08:27:22;99414.47;;;19.12;81.98
12360;BME280;6244;51.460;7.090;2023-07-24T08:32:19;99417.88;;;18.54;85.99
12360;BME280;6244;51.460;7.090;2023-07-24T08:37:16;99417.97;;;18.10;89.09
12360;BME280;6244;51.460;7.090;2023-07-24T08:42:14;99409.00;;;17.85;91.57
12360;BME280;6244;51.460;7.090;2023-07-24T08:47:11;99417.94;;;18.02;92.45
12360;BME280;6244;51.460;7.090;2023-07-24T08:52:08;99418.44;;;18.31;90.04
12360;BME280;6244;51.460;7.090;2023-07-24T08:57:07;99418.22;;;18.51;89.87
12360;BME280;6244;51.460;7.090;2023-07-24T09:02:05;99415.19;;;18.80;86.03
12360;BME280;6244;51.460;7.090;2023-07-24T09:07:02;99424.09;;;19.13;84.30
12360;BME280;6244;51.460;7.090;2023-07-24T09:11:59;99412.94;;;20.31;77.09
12360;BME280;6244;51.460;7.090;2023-07-24T09:17:05;99429.53;;;21.20;75.55
12360;BME280;6244;51.460;7.090;2023-07-24T09:22:12;99420.06;;;21.25;71.46
12360;BME280;6244;51.460;7.090;2023-07-24T09:27:10;99410.75;;;21.82;69.35
12360;BME280;6244;51.460;7.090;2023-07-24T09:32:18;99404.31;;;21.53;67.86
12360;BME280;6244;51.460;7.090;2023-07-24T09:37:23;99398.81;;;20.70;70.93
12360;BME280;6244;51.460;7.090;2023-07-24T09:42:27;99388.53;;;20.11;73.23
12360;BME280;6244;51.460;7.090;2023-07-24T09:47:26;99395.41;;;19.65;75.83
12360;BME280;6244;51.460;7.090;2023-07-24T09:52:23;99396.03;;;19.26;78.94
12360;BME280;6244;51.460;7.090;2023-07-24T09:57:20;99394.66;;;18.98;81.64
12360;BME280;6244;51.460;7.090;2023-07-24T10:02:18;99380.69;;;18.88;82.65
12360;BME280;6244;51.460;7.090;2023-07-24T10:07:17;99376.53;;;18.85;81.91
12360;BME280;6244;51.460;7.090;2023-07-24T10:12:17;99375.50;;;18.78;84.89
12360;BME280;6244;51.460;7.090;2023-07-24T10:17:14;99371.91;;;18.53;86.89
12360;BME280;6244;51.460;7.090;2023-07-24T10:22:21;99374.59;;;18.61;87.66
12360;BME280;6244;51.460;7.090;2023-07-24T10:27:23;99366.03;;;18.75;86.78
12360;BME280;6244;51.460;7.090;2023-07-24T10:32:19;99361.13;;;19.13;85.06
12360;BME280;6244;51.460;7.090;2023-07-24T10:37:17;99352.47;;;19.19;84.23
12360;BME280;6244;51.460;7.090;2023-07-24T10:42:22;99360.13;;;19.30;81.17
12360;BME280;6244;51.460;7.090;2023-07-24T10:47:19;99353.81;;;19.23;81.07
12360;BME280;6244;51.460;7.090;2023-07-24T10:52:15;99359.13;;;19.48;80.93
12360;BME280;6244;51.460;7.090;2023-07-24T10:57:12;99362.16;;;19.61;79.41
12360;BME280;6244;51.460;7.090;2023-07-24T11:02:10;99347.50;;;19.57;79.54
12360;BME280;6244;51.460;7.090;2023-07-24T11:07:08;99345.00;;;19.47;79.45
12360;BME280;6244;51.460;7.090;2023-07-24T11:12:10;99325.38;;;19.24;79.83
12360;BME280;6244;51.460;7.090;2023-07-24T11:17:06;99332.34;;;18.92;80.86
12360;BME280;6244;51.460;7.090;2023-07-24T11:22:05;99332.94;;;18.70;83.86
12360;BME280;6244;51.460;7.090;2023-07-24T11:27:08;99320.69;;;18.35;86.82
12360;BME280;6244;51.460;7.090;2023-07-24T11:32:05;99318.91;;;18.01;89.08
12360;BME280;6244;51.460;7.090;2023-07-24T11:37:02;99321.31;;;17.86;90.14
12360;BME280;6244;51.460;7.090;2023-07-24T11:42:00;99339.59;;;17.72;92.70
12360;BME280;6244;51.460;7.090;2023-07-24T11:47:01;99344.72;;;17.91;93.40
12360;BME280;6244;51.460;7.090;2023-07-24T11:52:02;99351.53;;;17.94;93.33
12360;BME280;6244;51.460;7.090;2023-07-24T11:57:01;99386.97;;;17.67;92.55
12360;BME280;6244;51.460;7.090;2023-07-24T12:01:57;99406.53;;;16.94;95.52
12360;BME280;6244;51.460;7.090;2023-07-24T12:06:54;99400.03;;;15.77;94.63
12360;BME280;6244;51.460;7.090;2023-07-24T12:11:50;99378.75;;;15.31;96.49
12360;BME280;6244;51.460;7.090;2023-07-24T12:16:48;99339.38;;;15.18;96.75
12360;BME280;6244;51.460;7.090;2023-07-24T12:21:45;99358.72;;;15.09;98.60
12360;BME280;6244;51.460;7.090;2023-07-24T12:26:41;99354.53;;;15.16;99.15
12360;BME280;6244;51.460;7.090;2023-07-24T12:31:38;99360.94;;;15.23;100.00
12360;BME280;6244;51.460;7.090;2023-07-24T12:36:36;99361.63;;;15.25;99.88
12360;BME280;6244;51.460;7.090;2023-07-24T12:41:32;99375.81;;;15.24;100.00
12360;BME280;6244;51.460;7.090;2023-07-24T12:46:29;99391.66;;;15.43;100.00
12360;BME280;6244;51.460;7.090;2023-07-24T12:51:26;99375.38;;;15.57;100.00
12360;BME280;6244;51.460;7.090;2023-07-24T12:56:24;99372.38;;;15.99;100.00
12360;BME280;6244;51.460;7.090;2023-07-24T13:01:20;99346.00;;;16.44;100.00
12360;BME280;6244;51.460;7.090;2023-07-24T13:06:17;99357.31;;;16.37;98.55
12360;BME280;6244;51.460;7.090;2023-07-24T13:11:13;99343.25;;;16.64;100.00
12360;BME280;6244;51.460;7.090;2023-07-24T13:16:11;99341.88;;;16.87;100.00
12360;BME280;6244;51.460;7.090;2023-07-24T13:21:08;99326.00;;;16.87;96.35
12360;BME280;6244;51.460;7.090;2023-07-24T13:26:05;99326.22;;;17.55;98.96
12360;BME280;6244;51.460;7.090;2023-07-24T13:31:13;99323.19;;;17.50;95.16
12360;BME280;6244;51.460;7.090;2023-07-24T13:36:09;99322.03;;;17.71;96.55
12360;BME280;6244;51.460;7.090;2023-07-24T13:41:06;99322.13;;;18.21;95.45
12360;BME280;6244;51.460;7.090;2023-07-24T13:46:03;99323.31;;;18.69;93.57
12360;BME280;6244;51.460;7.090;2023-07-24T13:51:04;99312.66;;;18.61;92.68
12360;BME280;6244;51.460;7.090;2023-07-24T13:56:01;99297.91;;;18.83;93.59
12360;BME280;6244;51.460;7.090;2023-07-24T14:00:58;99287.97;;;19.42;92.12
12360;BME280;6244;51.460;7.090;2023-07-24T14:05:55;99279.31;;;19.40;86.51
12360;BME280;6244;51.460;7.090;2023-07-24T14:10:54;99271.69;;;19.61;85.95
12360;BME280;6244;51.460;7.090;2023-07-24T14:15:51;99259.53;;;19.58;82.28
12360;BME280;6244;51.460;7.090;2023-07-24T14:20:47;99257.03;;;19.65;82.85
12360;BME280;6244;51.460;7.090;2023-07-24T14:25:43;99260.69;;;19.64;81.65
12360;BME280;6244;51.460;7.090;2023-07-24T14:30:41;99260.13;;;19.85;80.37
12360;BME280;6244;51.460;7.090;2023-07-24T14:35:38;99261.50;;;19.64;78.61
12360;BME280;6244;51.460;7.090;2023-07-24T14:40:34;99257.03;;;19.65;78.52
12360;BME280;6244;51.460;7.090;2023-07-24T14:45:31;99257.53;;;19.44;80.68
12360;BME280;6244;51.460;7.090;2023-07-24T14:50:29;99245.59;;;19.24;82.55
12360;BME280;6244;51.460;7.090;2023-07-24T14:55:25;99252.59;;;19.00;81.88
12360;BME280;6244;51.460;7.090;2023-07-24T15:00:22;99264.72;;;18.78;86.39
12360;BME280;6244;51.460;7.090;2023-07-24T15:05:18;99261.38;;;18.18;90.54
12360;BME280;6244;51.460;7.090;2023-07-24T15:10:16;99256.03;;;18.10;95.61
12360;BME280;6244;51.460;7.090;2023-07-24T15:15:13;99263.44;;;18.40;99.36
12360;BME280;6244;51.460;7.090;2023-07-24T15:20:10;99263.09;;;18.35;98.41
12360;BME280;6244;51.460;7.090;2023-07-24T15:25:08;99267.25;;;18.38;99.31
12360;BME280;6244;51.460;7.090;2023-07-24T15:30:07;99264.78;;;18.44;97.72
12360;BME280;6244;51.460;7.090;2023-07-24T15:35:04;99268.97;;;18.63;97.02
12360;BME280;6244;51.460;7.090;2023-07-24T15:40:01;99278.25;;;18.51;94.51
12360;BME280;6244;51.460;7.090;2023-07-24T15:44:58;99267.25;;;18.46;92.52
12360;BME280;6244;51.460;7.090;2023-07-24T15:49:56;99278.94;;;18.61;91.15
12360;BME280;6244;51.460;7.090;2023-07-24T15:54:53;99283.81;;;18.32;89.67
12360;BME280;6244;51.460;7.090;2023-07-24T15:59:51;99293.91;;;18.20;90.58
12360;BME280;6244;51.460;7.090;2023-07-24T16:04:50;99304.25;;;17.97;88.43
12360;BME280;6244;51.460;7.090;2023-07-24T16:09:48;99309.00;;;17.85;86.75
12360;BME280;6244;51.460;7.090;2023-07-24T16:14:48;99309.63;;;17.53;81.09
12360;BME280;6244;51.460;7.090;2023-07-24T16:19:44;99305.72;;;17.40;81.10
12360;BME280;6244;51.460;7.090;2023-07-24T16:24:41;99327.09;;;17.38;80.90
12360;BME280;6244;51.460;7.090;2023-07-24T16:29:39;99323.41;;;17.57;82.13
12360;BME280;6244;51.460;7.090;2023-07-24T16:34:35;99329.44;;;17.67;80.75
12360;BME280;6244;51.460;7.090;2023-07-24T16:39:32;99347.16;;;17.84;79.08
12360;BME280;6244;51.460;7.090;2023-07-24T16:44:29;99360.13;;;17.87;77.51
12360;BME280;6244;51.460;7.090;2023-07-24T16:49:27;99366.34;;;18.04;78.47
12360;BME280;6244;51.460;7.090;2023-07-24T16:54:23;99387.25;;;17.99;78.14
12360;BME280;6244;51.460;7.090;2023-07-24T16:59:20;99388.09;;;17.82;79.32
12360;BME280;6244;51.460;7.090;2023-07-24T17:04:18;99398.34;;;17.59;78.93
12360;BME280;6244;51.460;7.090;2023-07-24T17:09:15;99403.66;;;17.59;78.80
12360;BME280;6244;51.460;7.090;2023-07-24T17:14:13;99403.81;;;17.57;79.27
12360;BME280;6244;51.460;7.090;2023-07-24T17:19:09;99406.53;;;17.48;79.69
12360;BME280;6244;51.460;7.090;2023-07-24T17:24:06;99407.84;;;17.44;80.03
12360;BME280;6244;51.460;7.090;2023-07-24T17:29:04;99422.31;;;17.31;80.54
12360;BME280;6244;51.460;7.090;2023-07-24T17:34:01;99434.59;;;17.15;79.98
12360;BME280;6244;51.460;7.090;2023-07-24T17:38:58;99427.44;;;16.97;79.06
12360;BME280;6244;51.460;7.090;2023-07-24T17:43:56;99438.63;;;16.91;80.49
12360;BME280;6244;51.460;7.090;2023-07-24T17:48:54;99448.69;;;16.88;82.17
12360;BME280;6244;51.460;7.090;2023-07-24T17:53:50;99464.72;;;16.86;81.98
12360;BME280;6244;51.460;7.090;2023-07-24T17:58:47;99458.50;;;16.78;81.52
12360;BME280;6244;51.460;7.090;2023-07-24T18:03:43;99464.19;;;16.83;81.38
12360;BME280;6244;51.460;7.090;2023-07-24T18:08:41;99453.50;;;16.75;80.76
12360;BME280;6244;51.460;7.090;2023-07-24T18:13:38;99442.50;;;16.69;81.37
12360;BME280;6244;51.460;7.090;2023-07-24T18:18:35;99457.41;;;16.70;81.25
12360;BME280;6244;51.460;7.090;2023-07-24T18:23:31;99456.91;;;16.48;81.60
12360;BME280;6244;51.460;7.090;2023-07-24T18:28:29;99463.53;;;16.34;82.66
12360;BME280;6244;51.460;7.090;2023-07-24T18:33:26;99466.44;;;16.40;81.38
12360;BME280;6244;51.460;7.090;2023-07-24T18:38:22;99461.47;;;16.28;82.02
12360;BME280;6244;51.460;7.090;2023-07-24T18:43:19;99462.19;;;16.10;82.16
12360;BME280;6244;51.460;7.090;2023-07-24T18:48:17;99474.03;;;16.06;83.34
12360;BME280;6244;51.460;7.090;2023-07-24T18:53:13;99463.59;;;16.14;83.37
12360;BME280;6244;51.460;7.090;2023-07-24T18:58:12;99487.66;;;16.11;83.38
12360;BME280;6244;51.460;7.090;2023-07-24T19:03:09;99486.72;;;16.12;83.49
12360;BME280;6244;51.460;7.090;2023-07-24T19:08:07;99497.31;;;15.83;84.61
12360;BME280;6244;51.460;7.090;2023-07-24T19:13:05;99501.63;;;15.84;85.06
12360;BME280;6244;51.460;7.090;2023-07-24T19:18:02;99516.94;;;15.81;85.59
12360;BME280;6244;51.460;7.090;2023-07-24T19:22:58;99522.38;;;15.79;86.85
12360;BME280;6244;51.460;7.090;2023-07-24T19:27:56;99536.72;;;16.06;85.70
12360;BME280;6244;51.460;7.090;2023-07-24T19:32:53;99534.34;;;15.93;85.82
12360;BME280;6244;51.460;7.090;2023-07-24T19:37:52;99549.41;;;16.02;85.74
12360;BME280;6244;51.460;7.090;2023-07-24T19:42:48;99558.84;;;15.95;86.20
12360;BME280;6244;51.460;7.090;2023-07-24T19:47:46;99563.44;;;15.83;87.08
12360;BME280;6244;51.460;7.090;2023-07-24T19:52:43;99569.56;;;15.84;87.91
12360;BME280;6244;51.460;7.090;2023-07-24T19:57:44;99571.13;;;16.06;87.43
12360;BME280;6244;51.460;7.090;2023-07-24T20:02:41;99574.72;;;16.24;86.18
12360;BME280;6244;51.460;7.090;2023-07-24T20:07:39;99595.19;;;16.22;86.88
12360;BME280;6244;51.460;7.090;2023-07-24T20:12:36;99605.94;;;16.01;90.22
12360;BME280;6244;51.460;7.090;2023-07-24T20:17:32;99601.91;;;15.47;92.57
12360;BME280;6244;51.460;7.090;2023-07-24T20:22:29;99608.88;;;15.48;95.03
12360;BME280;6244;51.460;7.090;2023-07-24T20:27:27;99609.84;;;15.47;95.71
12360;BME280;6244;51.460;7.090;2023-07-24T20:32:23;99629.81;;;15.61;96.40
12360;BME280;6244;51.460;7.090;2023-07-24T20:37:20;99631.09;;;15.67;96.26
12360;BME280;6244;51.460;7.090;2023-07-24T20:42:16;99635.34;;;15.58;96.89
12360;BME280;6244;51.460;7.090;2023-07-24T20:47:14;99638.63;;;15.41;97.71
12360;BME280;6244;51.460;7.090;2023-07-24T20:52:11;99642.72;;;15.54;98.55
12360;BME280;6244;51.460;7.090;2023-07-24T20:57:08;99638.31;;;15.65;98.66
12360;BME280;6244;51.460;7.090;2023-07-24T21:02:05;99644.59;;;15.73;98.61
12360;BME280;6244;51.460;7.090;2023-07-24T21:07:03;99641.00;;;15.84;98.53
12360;BME280;6244;51.460;7.090;2023-07-24T21:12:00;99649.50;;;15.97;98.55
12360;BME280;6244;51.460;7.090;2023-07-24T21:16:56;99653.84;;;15.89;98.08
12360;BME280;6244;51.460;7.090;2023-07-24T21:21:53;99664.84;;;16.03;98.28
12360;BME280;6244;51.460;7.090;2023-07-24T21:26:51;99662.75;;;16.07;97.59
12360;BME280;6244;51.460;7.090;2023-07-24T21:31:48;99660.13;;;16.07;97.17
12360;BME280;6244;51.460;7.090;2023-07-24T21:36:44;99665.97;;;16.10;96.77
12360;BME280;6244;51.460;7.090;2023-07-24T21:41:41;99678.50;;;16.08;96.28
12360;BME280;6244;51.460;7.090;2023-07-24T21:46:39;99680.31;;;16.08;95.29
12360;BME280;6244;51.460;7.090;2023-07-24T21:51:36;99682.38;;;15.95;95.26
12360;BME280;6244;51.460;7.090;2023-07-24T21:56:33;99693.09;;;15.93;95.27
12360;BME280;6244;51.460;7.090;2023-07-24T22:01:29;99680.41;;;15.87;94.94
12360;BME280;6244;51.460;7.090;2023-07-24T22:06:27;99684.88;;;15.96;95.05
12360;BME280;6244;51.460;7.090;2023-07-24T22:11:24;99701.88;;;15.94;94.90
12360;BME280;6244;51.460;7.090;2023-07-24T22:16:20;99695.00;;;15.81;94.23
12360;BME280;6244;51.460;7.090;2023-07-24T22:21:17;99693.63;;;15.87;94.40
12360;BME280;6244;51.460;7.090;2023-07-24T22:26:15;99685.81;;;15.85;94.08
12360;BME280;6244;51.460;7.090;2023-07-24T22:31:11;99680.69;;;15.84;93.71
12360;BME280;6244;51.460;7.090;2023-07-24T22:36:08;99683.63;;;15.91;93.17
12360;BME280;6244;51.460;7.090;2023-07-24T22:41:08;99690.88;;;15.98;93.62
12360;BME280;6244;51.460;7.090;2023-07-24T22:46:07;99690.88;;;15.98;93.32
12360;BME280;6244;51.460;7.090;2023-07-24T22:51:03;99694.88;;;15.83;92.30
12360;BME280;6244;51.460;7.090;2023-07-24T22:56:00;99682.94;;;15.89;93.11
12360;BME280;6244;51.460;7.090;2023-07-24T23:00:56;99691.00;;;15.97;93.07
12360;BME280;6244;51.460;7.090;2023-07-24T23:05:54;99690.97;;;15.87;92.79
12360;BME280;6244;51.460;7.090;2023-07-24T23:10:50;99686.91;;;15.73;92.22
12360;BME280;6244;51.460;7.090;2023-07-24T23:15:47;99688.47;;;15.76;92.29
12360;BME280;6244;51.460;7.090;2023-07-24T23:20:43;99687.88;;;15.63;91.61
12360;BME280;6244;51.460;7.090;2023-07-24T23:25:41;99683.78;;;15.58;92.09
12360;BME280;6244;51.460;7.090;2023-07-24T23:30:38;99682.34;;;15.45;91.71
12360;BME280;6244;51.460;7.090;2023-07-24T23:35:35;99687.78;;;15.22;91.47
12360;BME280;6244;51.460;7.090;2023-07-24T23:40:32;99676.63;;;15.40;91.82
12360;BME280;6244;51.460;7.090;2023-07-24T23:45:32;99681.22;;;15.47;91.60
12360;BME280;6244;51.460;7.090;2023-07-24T23:50:28;99694.78;;;15.03;91.10
12360;BME280;6244;51.460;7.090;2023-07-24T23:55:25;99700.72;;;15.16;93.00
